createdAt,value
2023-01-07T00:04:21.321Z,97.47
2023-01-07T00:09:22.672Z,96.86
2023-01-07T00:14:25.052Z,97.90
2023-01-07T00:19:26.408Z,97.59
2023-01-07T00:24:27.725Z,98.07
2023-01-07T00:29:29.085Z,97.51
2023-01-07T00:34:30.477Z,97.35
2023-01-07T00:39:31.797Z,97.28
2023-01-07T00:44:33.925Z,97.23
2023-01-07T00:49:35.416Z,96.40
2023-01-07T00:54:36.777Z,97.12
2023-01-07T00:59:38.125Z,96.74
2023-01-07T01:04:39.513Z,97.29
2023-01-07T01:09:40.837Z,97.03
2023-01-07T01:14:42.229Z,97.18
2023-01-07T01:19:43.575Z,96.57
2023-01-07T01:24:44.921Z,97.23
2023-01-07T01:29:46.486Z,96.59
2023-01-07T01:34:48.743Z,96.89
2023-01-07T01:39:50.104Z,96.80
2023-01-07T01:44:53.302Z,97.16
2023-01-07T01:50:24.954Z,96.92
2023-01-07T01:55:31.993Z,96.95
2023-01-07T02:00:35.788Z,96.79
2023-01-07T02:05:40.768Z,96.94
2023-01-07T02:10:42.660Z,96.80
2023-01-07T02:15:56.398Z,97.02
2023-01-07T02:21:14.231Z,96.88
2023-01-07T02:26:15.605Z,96.47
2023-01-07T02:31:35.765Z,95.98
2023-01-07T02:36:47.357Z,95.30
2023-01-07T02:42:18.596Z,95.49
2023-01-07T02:47:23.664Z,94.85
2023-01-07T02:52:26.449Z,93.14
2023-01-07T02:57:46.284Z,93.33
2023-01-07T03:02:48.822Z,93.54
2023-01-07T03:08:13.432Z,93.56
2023-01-07T03:13:21.173Z,93.17
2023-01-07T03:18:30.285Z,92.57
2023-01-07T03:23:39.425Z,92.71
2023-01-07T03:28:42.294Z,93.14
2023-01-07T03:34:07.624Z,93.30
2023-01-07T03:39:11.086Z,94.02
2023-01-07T03:44:12.575Z,94.34
2023-01-07T03:49:14.134Z,94.17
2023-01-07T03:54:16.476Z,93.41
2023-01-07T03:59:18.115Z,93.14
2023-01-07T04:04:19.622Z,93.51
2023-01-07T04:09:22.022Z,93.17
2023-01-07T04:14:23.967Z,93.47
2023-01-07T04:19:25.405Z,93.59
2023-01-07T04:24:26.868Z,95.24
2023-01-07T04:29:28.485Z,94.80
2023-01-07T04:34:30.137Z,94.26
2023-01-07T04:39:31.885Z,94.78
2023-01-07T04:44:33.305Z,94.55
2023-01-07T04:49:34.739Z,94.29
2023-01-07T04:54:36.899Z,94.11
2023-01-07T04:59:38.341Z,93.53
2023-01-07T05:04:40.829Z,93.03
2023-01-07T05:09:42.287Z,93.10
2023-01-07T05:14:43.918Z,92.63
2023-01-07T05:19:46.237Z,93.37
2023-01-07T05:24:48.766Z,94.32
2023-01-07T05:29:51.560Z,94.96
2023-01-07T05:34:53.667Z,95.73
2023-01-07T05:39:56.047Z,95.46
2023-01-07T05:44:57.460Z,96.02
2023-01-07T05:49:58.798Z,95.79
2023-01-07T05:55:00.167Z,96.02
2023-01-07T06:00:01.519Z,95.41
2023-01-07T06:05:03.489Z,96.22
2023-01-07T06:10:05.065Z,96.22
2023-01-07T06:15:09.343Z,96.24
2023-01-07T06:20:11.009Z,96.43
2023-01-07T06:25:12.804Z,95.90
2023-01-07T06:30:14.175Z,95.64
2023-01-07T06:35:15.528Z,96.44
2023-01-07T06:40:16.951Z,95.77
2023-01-07T06:45:18.355Z,95.90
2023-01-07T06:50:19.660Z,96.46
2023-01-07T06:55:20.997Z,95.66
2023-01-07T07:00:22.449Z,95.92
2023-01-07T07:05:23.819Z,96.41
2023-01-07T07:10:25.240Z,96.49
2023-01-07T07:15:26.651Z,96.39
2023-01-07T07:20:27.963Z,96.15
2023-01-07T07:25:29.592Z,96.94
2023-01-07T07:30:45.950Z,96.52
2023-01-07T07:35:49.322Z,96.92
2023-01-07T07:40:50.720Z,96.35
2023-01-07T07:45:52.036Z,96.44
2023-01-07T07:50:53.548Z,97.03
2023-01-07T07:55:54.969Z,96.45
2023-01-07T08:00:56.404Z,96.19
2023-01-07T08:05:57.779Z,96.29
2023-01-07T08:10:59.160Z,96.71
2023-01-07T08:16:00.660Z,96.16
2023-01-07T08:21:02.116Z,95.92
2023-01-07T08:26:03.569Z,96.22
2023-01-07T08:31:06.024Z,96.37
2023-01-07T08:36:18.111Z,96.68
2023-01-07T08:41:23.928Z,96.92
2023-01-07T08:46:25.323Z,97.19
2023-01-07T08:51:26.712Z,97.10
2023-01-07T08:56:28.037Z,97.12
2023-01-07T09:01:30.098Z,96.96
2023-01-07T09:06:31.486Z,97.48
2023-01-07T09:11:32.843Z,98.15
2023-01-07T09:16:34.291Z,97.70
2023-01-07T09:21:35.622Z,97.96
2023-01-07T09:26:36.941Z,97.10
2023-01-07T09:31:38.265Z,97.38
2023-01-07T09:36:39.613Z,97.96
2023-01-07T09:41:59.878Z,97.85
2023-01-07T09:47:01.842Z,98.31
2023-01-07T09:52:08.353Z,98.18
2023-01-07T09:57:14.258Z,98.21
2023-01-07T10:02:21.791Z,97.90
2023-01-07T10:07:34.639Z,97.52
2023-01-07T10:12:54.828Z,97.60
2023-01-07T10:18:02.430Z,97.14
2023-01-07T10:23:14.169Z,97.83
2023-01-07T10:28:20.020Z,97.91
2023-01-07T10:33:26.693Z,98.21
2023-01-07T10:38:30.181Z,97.89
2023-01-07T10:43:40.759Z,97.55
2023-01-07T10:48:51.287Z,97.38
2023-01-07T10:54:03.440Z,98.32
2023-01-07T10:59:04.765Z,99.84
2023-01-07T11:04:13.501Z,99.93
2023-01-07T11:09:17.996Z,99.60
2023-01-07T11:14:20.830Z,98.86
2023-01-07T11:19:23.631Z,98.30
2023-01-07T11:24:24.932Z,98.27
2023-01-07T11:29:30.027Z,98.63
2023-01-07T11:34:34.486Z,98.82
2023-01-07T11:39:36.204Z,98.83
2023-01-07T11:44:37.541Z,98.69
2023-01-07T11:49:43.233Z,99.28
2023-01-07T11:54:49.790Z,99.66
2023-01-07T12:00:05.051Z,99.56
2023-01-07T12:05:16.544Z,100.00
2023-01-07T12:10:30.047Z,100.00
2023-01-07T12:15:33.398Z,100.00
2023-01-07T12:21:02.699Z,99.55
2023-01-07T12:26:04.034Z,99.30
2023-01-07T12:31:16.390Z,99.00
2023-01-07T12:36:28.711Z,99.30
2023-01-07T12:41:36.589Z,100.00
2023-01-07T12:46:40.420Z,99.57
2023-01-07T12:51:56.857Z,98.83
2023-01-07T12:57:00.230Z,98.82
2023-01-07T13:02:13.650Z,98.31
2023-01-07T13:07:33.745Z,98.15
2023-01-07T13:12:48.156Z,97.86
2023-01-07T13:17:50.988Z,98.78
2023-01-07T13:22:53.932Z,99.30
2023-01-07T13:28:10.787Z,99.67
2023-01-07T13:33:38.696Z,100.00
2023-01-07T13:38:55.361Z,99.37
2023-01-07T13:44:15.113Z,98.72
2023-01-07T13:49:23.979Z,97.81
2023-01-07T13:54:44.259Z,97.35
2023-01-07T13:59:49.362Z,97.49
2023-01-07T14:05:05.137Z,98.20
2023-01-07T14:10:17.172Z,97.80
2023-01-07T14:15:33.837Z,98.48
2023-01-07T14:20:47.530Z,98.22
2023-01-07T14:25:48.882Z,99.09
2023-01-07T14:30:51.876Z,97.31
2023-01-07T14:35:53.239Z,96.37
2023-01-07T14:41:03.994Z,95.99
2023-01-07T14:46:06.960Z,95.01
2023-01-07T14:51:28.111Z,94.76
2023-01-07T14:56:51.134Z,94.90
2023-01-07T15:01:53.108Z,94.78
2023-01-07T15:06:59.125Z,94.70
2023-01-07T15:12:21.409Z,94.36
2023-01-07T15:17:23.132Z,94.51
2023-01-07T15:22:24.483Z,93.37
2023-01-07T15:27:29.846Z,93.14
2023-01-07T15:32:34.430Z,92.38
2023-01-07T15:37:35.938Z,92.02
2023-01-07T15:42:44.931Z,92.46
2023-01-07T15:47:46.304Z,93.11
2023-01-07T15:52:51.945Z,94.32
2023-01-07T15:57:56.959Z,93.96
2023-01-07T16:02:58.455Z,93.13
2023-01-07T16:08:00.998Z,93.44
2023-01-07T16:13:06.650Z,93.91
2023-01-07T16:18:07.941Z,93.58
2023-01-07T16:23:40.555Z,94.08
2023-01-07T16:28:42.745Z,94.09
2023-01-07T16:34:18.898Z,94.35
2023-01-07T17:39:01.103Z,90.78
2023-01-07T17:44:03.097Z,90.76
2023-01-07T17:49:56.814Z,90.83
2023-01-07T18:40:15.207Z,90.08
2023-01-07T18:45:22.890Z,89.79
2023-01-07T18:50:26.524Z,89.09
2023-01-07T19:01:30.412Z,88.54
2023-01-07T19:06:32.227Z,88.31
2023-01-07T19:11:33.689Z,87.54
2023-01-07T19:16:37.659Z,88.28
2023-01-07T19:21:41.952Z,87.61
2023-01-07T19:26:43.778Z,87.96
2023-01-07T19:31:45.639Z,87.90
2023-01-07T19:36:47.163Z,88.01
2023-01-07T19:41:49.017Z,87.66
2023-01-07T19:46:50.376Z,88.45
2023-01-07T19:51:52.585Z,88.70
2023-01-07T19:56:54.016Z,88.06
2023-01-07T20:01:55.488Z,88.12
2023-01-07T20:06:56.972Z,88.11
2023-01-07T20:11:58.347Z,87.75
2023-01-07T20:16:59.837Z,88.48
2023-01-07T20:22:01.203Z,88.80
2023-01-07T20:27:02.908Z,88.19
2023-01-07T20:32:07.271Z,88.30
2023-01-07T20:37:08.699Z,88.84
2023-01-07T20:42:10.259Z,88.12
2023-01-07T20:47:11.594Z,88.74
2023-01-07T20:52:12.917Z,89.11
2023-01-07T20:57:14.282Z,88.81
2023-01-07T21:02:16.750Z,89.27
2023-01-07T21:07:18.217Z,89.42
2023-01-07T21:12:19.817Z,89.51
2023-01-07T21:17:21.178Z,89.92
2023-01-07T21:22:22.717Z,89.53
2023-01-07T21:27:24.609Z,89.56
2023-01-07T21:32:25.997Z,89.75
2023-01-07T21:37:29.229Z,89.42
2023-01-07T21:42:30.735Z,89.08
2023-01-07T21:47:32.380Z,88.50
2023-01-07T21:52:34.538Z,88.53
2023-01-07T21:57:36.327Z,89.01
2023-01-07T22:02:37.633Z,88.99
2023-01-07T22:07:39.169Z,89.14
2023-01-07T22:12:40.501Z,89.15
2023-01-07T22:17:41.862Z,88.77
2023-01-07T22:22:43.559Z,89.07
2023-01-07T22:27:45.026Z,88.31
2023-01-07T22:32:46.342Z,89.27
2023-01-07T22:37:48.464Z,89.77
2023-01-07T22:42:54.323Z,90.22
2023-01-07T22:47:55.686Z,90.61
2023-01-07T22:52:57.097Z,90.94
2023-01-07T22:57:59.300Z,91.26
2023-01-07T23:03:00.660Z,91.16
2023-01-07T23:08:02.009Z,91.77
2023-01-07T23:13:03.606Z,91.92
2023-01-07T23:18:05.616Z,91.70
2023-01-07T23:23:06.941Z,92.04
2023-01-07T23:28:08.321Z,91.80
2023-01-07T23:33:10.114Z,91.75
2023-01-07T23:38:11.577Z,91.54
2023-01-07T23:43:12.922Z,91.79
2023-01-07T23:48:14.225Z,91.92
2023-01-07T23:53:15.541Z,92.19
2023-01-07T23:58:16.842Z,91.69
